CNS4 weather

Alexandria Aerodrome
Alexandria, Ontario, Canada

Public forecast

Using degrees Celsius for public forecast. Weather courtesy of forecast.io.

Closest aviation weather report (METAR) to Alexandria Aerodrome

Closest report is Massena International Richards Field, 25.5 nm (47.2 km) SSW. Retrieved 2019/11/17 10:53 UTC (25 minutes ago):

KMSS 171053Z AUTO 00000KT 10SM CLR M17/M19 A3047 RMK AO2 SLP328 T11671194

Closest aviation forecast (TAF) to Alexandria Aerodrome

Closest forecast is Massena International Richards Field, 25.5 nm (47.2 km) SSW. Retrieved 2019/11/17 06:22 UTC (5 hours ago):

TAF KMSS 170520Z 1706/1806 VRB03KT P6SM FEW250 FM171300 06007KT P6SM FEW180